Manzaneda, Spain
Current Conditions -  °F | °C
As of 5:30 AM on Thursday 27 Nov 2014 (Local Time) from LEVX Reporting Station
Broken Clouds Broken Clouds  
Wind Chill: 45°   Ceiling: 4000
Heat Index: 45°   Visibility: 6mi
Dew Point: 45°   Wind: 2mph
Humidity: 100%   Direction: NA
Pressure: 29.59"   Gusts: NA
Location:  42.31°N, 7.24°W
Report Text: LEVX 270430Z VRB02KT 9999 FEW010 BKN040 07/07 Q1002 NOSIG
Loading
Personal Weather Stations






























Interactive Weather Map New forecast layout! Learn more

10-Day Weather Forecast

Advertisements
Track Severe Weather on mobile